Time;durP1;ratioP1;P1;durP2;ratioP2;P2;SDS_P1;SDS_P2;PMS_P1;PMS_P2;Temp;Humidity;BMP_temperature;BMP_pressure;BME280_temperature;BME280_humidity;BME280_pressure;Samples;Min_cycle;Max_cycle;Signal;HPM_P1;HPM_P2
2023/06/18 02:44:28;;;;;;;1.40;0.80;;;14.70;55.40;;;;;;6297508;22;20047;-67
2023/06/18 02:46:56;;;;;;;3.85;0.90;;;14.70;55.30;;;;;;6302389;22;20747;-68
2023/06/18 02:49:23;;;;;;;2.75;1.10;;;14.70;55.50;;;;;;6302510;22;20388;-69
2023/06/18 02:51:50;;;;;;;2.65;1.10;;;14.70;55.70;;;;;;6301215;22;20019;-67
2023/06/18 02:54:18;;;;;;;3.70;1.10;;;14.80;55.70;;;;;;6301987;22;20003;-69
2023/06/18 02:56:45;;;;;;;6.43;1.50;;;14.80;55.10;;;;;;6295315;22;20046;-69
2023/06/18 02:59:13;;;;;;;2.42;1.10;;;14.80;55.00;;;;;;6302262;22;20042;-70
2023/06/18 03:01:40;;;;;;;5.13;1.17;;;14.90;55.10;;;;;;6304278;22;20394;-69
2023/06/18 03:04:07;;;;;;;2.17;1.20;;;14.90;54.70;;;;;;6304316;22;20035;-71
2023/06/18 03:06:35;;;;;;;1.50;0.90;;;15.00;54.40;;;;;;6304828;22;20003;-68
2023/06/18 03:09:03;;;;;;;1.10;0.80;;;15.00;54.00;;;;;;6302778;22;20338;-66
2023/06/18 03:11:31;;;;;;;2.03;0.93;;;15.10;54.30;;;;;;6303310;22;20019;-68
2023/06/18 03:13:58;;;;;;;3.05;1.15;;;15.10;54.30;;;;;;6304474;22;20341;-68
2023/06/18 03:16:26;;;;;;;4.70;1.20;;;15.10;54.10;;;;;;6303834;22;20008;-67
2023/06/18 03:18:54;;;;;;;4.93;1.33;;;15.20;54.10;;;;;;6301633;22;20118;-69
2023/06/18 03:21:21;;;;;;;2.80;1.08;;;15.20;54.30;;;;;;6305014;22;20003;-69
2023/06/18 03:23:49;;;;;;;1.60;1.10;;;15.20;53.60;;;;;;6302237;22;20113;-67
2023/06/18 03:26:17;;;;;;;1.17;1.02;;;15.20;53.50;;;;;;6303344;22;20434;-69
2023/06/18 03:28:44;;;;;;;1.05;0.90;;;15.20;53.00;;;;;;6303671;22;20389;-69
2023/06/18 03:31:12;;;;;;;1.60;1.10;;;15.20;52.90;;;;;;6303722;22;20082;-68
2023/06/18 03:33:39;;;;;;;1.90;1.08;;;15.30;53.30;;;;;;6303920;22;20027;-67
2023/06/18 03:36:07;;;;;;;1.55;1.00;;;15.30;53.30;;;;;;6301195;22;20057;-68
2023/06/18 03:38:35;;;;;;;1.90;0.90;;;15.30;52.70;;;;;;6276955;22;20039;-66
2023/06/18 03:41:02;;;;;;;3.63;1.10;;;15.30;50.90;;;;;;6304269;22;19999;-69
2023/06/18 03:43:30;;;;;;;2.92;0.73;;;15.30;49.70;;;;;;6303589;22;20007;-66
2023/06/18 03:45:58;;;;;;;2.42;0.77;;;15.30;48.50;;;;;;6303962;22;19996;-66
2023/06/18 03:48:25;;;;;;;2.28;0.80;;;15.40;47.00;;;;;;6303739;22;20011;-66
2023/06/18 03:50:53;;;;;;;3.80;0.80;;;15.40;47.00;;;;;;6275762;22;20383;-66
2023/06/18 03:53:20;;;;;;;2.70;0.82;;;15.30;47.00;;;;;;6304377;22;20355;-66
2023/06/18 03:55:48;;;;;;;2.20;0.70;;;15.30;47.60;;;;;;6303682;22;20061;-70
2023/06/18 03:58:16;;;;;;;2.22;0.82;;;15.30;46.90;;;;;;6303585;22;20009;-68
2023/06/18 04:00:44;;;;;;;2.17;0.70;;;15.30;47.40;;;;;;6304108;22;20007;-66
2023/06/18 04:03:12;;;;;;;2.58;0.60;;;15.40;46.70;;;;;;6304246;22;20368;-66
2023/06/18 04:05:40;;;;;;;2.90;0.95;;;15.40;46.70;;;;;;6302931;22;20316;-66
2023/06/18 04:08:07;;;;;;;1.67;0.80;;;15.40;47.10;;;;;;6303694;22;20334;-65
2023/06/18 04:10:35;;;;;;;3.92;0.90;;;15.50;47.00;;;;;;6303455;22;20014;-65
2023/06/18 04:13:02;;;;;;;1.05;0.57;;;15.50;47.10;;;;;;6304038;22;20026;-65
2023/06/18 04:15:30;;;;;;;1.65;0.88;;;15.60;46.80;;;;;;6303231;22;19999;-64
2023/06/18 04:17:57;;;;;;;1.80;0.90;;;15.60;46.80;;;;;;6300744;22;20034;-65
2023/06/18 04:20:25;;;;;;;0.80;0.68;;;15.50;47.00;;;;;;6303739;22;20008;-66
2023/06/18 04:22:52;;;;;;;2.55;0.98;;;15.60;47.00;;;;;;6303704;22;20086;-66
2023/06/18 04:25:20;;;;;;;1.58;0.77;;;15.60;46.60;;;;;;6303019;22;20074;-66
2023/06/18 04:27:47;;;;;;;1.20;0.90;;;15.60;46.60;;;;;;6303608;22;20078;-66
2023/06/18 04:30:14;;;;;;;1.67;0.90;;;15.60;46.40;;;;;;6303381;22;20066;-66
2023/06/18 04:32:42;;;;;;;3.08;0.90;;;15.60;46.60;;;;;;6303620;22;20081;-66
2023/06/18 04:35:10;;;;;;;2.65;0.90;;;15.70;46.70;;;;;;6302247;22;20003;-67
2023/06/18 04:37:38;;;;;;;1.40;0.70;;;15.70;46.40;;;;;;6302947;22;20386;-67
2023/06/18 04:40:09;;;;;;;1.90;1.00;;;15.70;46.40;;;;;;6303060;22;20003;-67
2023/06/18 04:42:37;;;;;;;9.50;2.88;;;15.70;46.50;;;;;;6303633;22;20062;-67
2023/06/18 04:45:05;;;;;;;11.05;3.53;;;15.70;46.60;;;;;;6302043;22;20011;-67
2023/06/18 04:47:32;;;;;;;17.13;6.68;;;15.70;46.30;;;;;;6302444;22;20015;-67
2023/06/18 04:50:01;;;;;;;6.88;2.92;;;15.70;46.50;;;;;;6303565;22;20007;-66
2023/06/18 04:52:29;;;;;;;6.03;2.10;;;15.70;46.50;;;;;;6303092;22;20011;-66
2023/06/18 04:54:56;;;;;;;5.82;1.33;;;15.70;46.50;;;;;;6303293;22;20007;-68
2023/06/18 04:57:24;;;;;;;2.35;1.02;;;15.70;46.40;;;;;;6304339;22;20441;-68
2023/06/18 04:59:51;;;;;;;2.88;1.35;;;15.70;46.90;;;;;;6279184;22;20015;-67
2023/06/18 05:02:19;;;;;;;3.33;1.40;;;15.70;46.70;;;;;;6306787;22;20144;-68
2023/06/18 05:04:46;;;;;;;2.83;1.10;;;15.70;47.00;;;;;;6305654;22;20029;-67
2023/06/18 05:07:15;;;;;;;2.55;1.20;;;15.70;47.20;;;;;;6306632;22;20007;-67
2023/06/18 05:09:43;;;;;;;1.63;1.20;;;15.70;47.30;;;;;;6306465;22;20013;-67
2023/06/18 05:12:11;;;;;;;2.20;1.05;;;15.60;47.10;;;;;;6305650;22;20047;-68
2023/06/18 05:14:38;;;;;;;2.42;0.82;;;15.60;47.50;;;;;;6306321;22;20011;-68
2023/06/18 05:17:06;;;;;;;3.45;1.13;;;15.70;47.60;;;;;;6305762;22;20082;-68
2023/06/18 05:19:33;;;;;;;2.70;1.08;;;15.70;47.50;;;;;;6306228;22;20322;-68
2023/06/18 05:22:01;;;;;;;5.10;1.48;;;15.60;47.50;;;;;;6306176;22;20007;-67
2023/06/18 05:24:28;;;;;;;3.25;1.42;;;15.60;47.60;;;;;;6306572;22;20001;-68
2023/06/18 05:26:55;;;;;;;2.22;1.30;;;15.60;47.60;;;;;;6306079;22;20074;-68
2023/06/18 05:29:23;;;;;;;5.35;2.30;;;15.60;47.70;;;;;;6305586;22;20116;-68
2023/06/18 05:31:50;;;;;;;3.80;1.73;;;15.60;47.90;;;;;;6306077;22;20011;-68
2023/06/18 05:34:18;;;;;;;4.05;1.77;;;15.60;47.90;;;;;;6305167;22;20379;-68
2023/06/18 05:36:45;;;;;;;5.55;1.70;;;15.60;48.20;;;;;;6305961;22;20006;-68
2023/06/18 05:39:13;;;;;;;3.15;1.45;;;15.50;48.30;;;;;;6305067;22;20003;-69
2023/06/18 05:41:40;;;;;;;2.33;1.10;;;15.50;48.20;;;;;;6305740;22;20437;-68
2023/06/18 05:44:07;;;;;;;2.92;1.30;;;15.50;48.00;;;;;;6305994;22;20011;-68
2023/06/18 05:46:35;;;;;;;1.95;1.08;;;15.50;48.00;;;;;;6305862;22;20057;-68
2023/06/18 05:49:02;;;;;;;5.72;1.20;;;15.50;47.90;;;;;;6306064;22;20007;-68
2023/06/18 05:51:30;;;;;;;5.68;1.02;;;15.40;47.80;;;;;;6304361;22;20068;-68
2023/06/18 05:53:57;;;;;;;2.75;0.98;;;15.50;47.50;;;;;;6305643;22;19995;-68
2023/06/18 05:56:25;;;;;;;2.42;0.93;;;15.50;47.50;;;;;;6306288;22;20043;-69
2023/06/18 05:58:53;;;;;;;4.57;1.00;;;15.50;47.40;;;;;;6302129;22;20060;-67
2023/06/18 06:01:20;;;;;;;1.52;0.98;;;15.50;47.80;;;;;;6275961;22;20011;-67
2023/06/18 06:03:48;;;;;;;1.88;1.05;;;15.40;47.90;;;;;;6302625;22;20000;-67
2023/06/18 06:06:15;;;;;;;1.77;0.90;;;15.40;47.70;;;;;;6303136;22;20007;-66
2023/06/18 06:08:42;;;;;;;3.08;1.33;;;15.50;47.80;;;;;;6302671;22;20015;-68
2023/06/18 06:11:10;;;;;;;3.05;1.30;;;15.40;47.50;;;;;;6300752;22;20408;-66
2023/06/18 06:13:37;;;;;;;1.90;1.00;;;15.40;47.90;;;;;;6302113;22;20038;-67
2023/06/18 06:16:05;;;;;;;1.63;1.10;;;15.40;47.90;;;;;;6302870;22;20035;-67
2023/06/18 06:18:32;;;;;;;2.00;1.00;;;15.30;48.00;;;;;;6298923;22;20456;-67
2023/06/18 06:21:00;;;;;;;5.32;0.80;;;15.30;48.60;;;;;;6301078;22;20003;-68
2023/06/18 06:23:27;;;;;;;2.58;0.90;;;15.30;49.20;;;;;;6301787;22;20497;-68
2023/06/18 06:25:55;;;;;;;2.10;0.70;;;15.30;49.50;;;;;;6302047;22;19999;-68
2023/06/18 06:28:22;;;;;;;3.97;0.90;;;15.20;49.80;;;;;;6302837;22;20011;-68
2023/06/18 06:30:50;;;;;;;1.23;0.70;;;15.20;50.00;;;;;;6302008;22;20076;-67
2023/06/18 06:33:17;;;;;;;1.70;0.77;;;15.10;50.20;;;;;;6301059;22;20008;-67
2023/06/18 06:35:46;;;;;;;1.33;0.90;;;15.10;50.40;;;;;;6302122;22;20057;-66
2023/06/18 06:38:13;;;;;;;1.02;0.50;;;15.00;50.60;;;;;;6274835;22;20008;-67
2023/06/18 06:40:41;;;;;;;1.10;0.68;;;14.90;50.80;;;;;;6299265;22;20426;-67
2023/06/18 06:43:08;;;;;;;2.38;0.88;;;14.90;50.70;;;;;;6300679;22;20007;-67
2023/06/18 06:45:36;;;;;;;1.45;0.75;;;14.90;50.60;;;;;;6302554;22;20476;-66
2023/06/18 06:48:03;;;;;;;1.48;0.73;;;14.80;50.60;;;;;;6302608;22;20038;-68
2023/06/18 06:50:31;;;;;;;1.48;1.00;;;14.80;50.90;;;;;;6302271;22;20322;-68
2023/06/18 06:52:58;;;;;;;3.38;0.80;;;14.80;50.80;;;;;;6302009;22;20011;-68
2023/06/18 06:55:25;;;;;;;1.73;0.80;;;14.80;50.70;;;;;;6302707;22;19999;-67
2023/06/18 06:57:53;;;;;;;1.45;0.80;;;14.70;50.90;;;;;;6301891;22;20007;-68
2023/06/18 07:00:20;;;;;;;1.00;0.90;;;14.70;51.00;;;;;;6302049;22;19999;-68
2023/06/18 07:02:48;;;;;;;1.35;0.90;;;14.70;51.00;;;;;;6302885;22;20045;-68
2023/06/18 07:05:15;;;;;;;1.02;0.90;;;14.70;51.10;;;;;;6305279;22;20003;-68
2023/06/18 07:07:43;;;;;;;1.00;0.90;;;14.60;51.40;;;;;;6305565;22;20022;-68
2023/06/18 07:10:10;;;;;;;1.65;1.30;;;14.60;51.70;;;;;;6305068;22;20346;-69
2023/06/18 07:12:38;;;;;;;1.60;1.30;;;14.50;51.60;;;;;;6305481;22;20007;-68
2023/06/18 07:15:06;;;;;;;1.10;0.90;;;14.50;51.90;;;;;;6304995;22;20007;-68
2023/06/18 07:17:33;;;;;;;1.48;1.10;;;14.50;51.90;;;;;;6305555;22;20025;-68
2023/06/18 07:20:01;;;;;;;1.35;1.02;;;14.50;51.90;;;;;;6306110;22;20003;-69
2023/06/18 07:22:28;;;;;;;1.50;1.10;;;14.40;51.80;;;;;;6278502;22;20074;-68
2023/06/18 07:24:56;;;;;;;0.70;0.70;;;14.40;51.90;;;;;;6278330;22;20031;-68
2023/06/18 07:27:24;;;;;;;1.42;1.20;;;14.30;52.10;;;;;;6304536;22;20101;-68
2023/06/18 07:29:52;;;;;;;1.30;1.10;;;14.30;52.00;;;;;;6305542;22;20376;-64
2023/06/18 07:32:20;;;;;;;1.00;0.90;;;14.30;51.90;;;;;;6306009;22;20339;-65
2023/06/18 07:34:47;;;;;;;1.13;0.90;;;14.30;51.90;;;;;;6305728;22;20005;-65
2023/06/18 07:37:15;;;;;;;1.30;1.00;;;14.30;51.90;;;;;;6305541;22;20082;-65
2023/06/18 07:39:42;;;;;;;1.63;0.93;;;14.30;52.10;;;;;;6305664;22;20006;-65
2023/06/18 07:42:10;;;;;;;1.65;1.00;;;14.30;51.90;;;;;;6305259;22;19995;-68
2023/06/18 07:44:37;;;;;;;1.90;0.98;;;14.30;52.00;;;;;;6305158;22;20015;-68
2023/06/18 07:47:05;;;;;;;1.13;1.02;;;14.20;52.10;;;;;;6306957;22;19999;-68
2023/06/18 07:49:32;;;;;;;1.60;1.10;;;14.20;52.20;;;;;;6307525;22;20010;-69
2023/06/18 07:52:01;;;;;;;1.65;1.17;;;14.20;52.50;;;;;;6307533;22;20015;-69
2023/06/18 07:54:28;;;;;;;2.72;0.98;;;14.20;52.40;;;;;;6308299;22;20074;-69
2023/06/18 07:56:56;;;;;;;2.20;1.20;;;14.20;52.60;;;;;;6306857;22;20054;-69
2023/06/18 07:59:23;;;;;;;2.75;1.10;;;14.20;52.60;;;;;;6306699;22;20007;-69
2023/06/18 08:01:52;;;;;;;1.73;1.10;;;14.10;52.50;;;;;;6307503;22;20010;-69
2023/06/18 08:04:19;;;;;;;2.88;1.30;;;14.10;52.60;;;;;;6307189;22;20491;-69
2023/06/18 08:06:48;;;;;;;2.38;1.50;;;14.10;52.10;;;;;;6307141;22;20011;-70
2023/06/18 08:09:16;;;;;;;2.42;1.40;;;14.10;52.40;;;;;;6306423;22;20003;-71
2023/06/18 08:11:43;;;;;;;2.42;1.38;;;14.10;52.50;;;;;;6307271;22;20445;-69
2023/06/18 08:14:11;;;;;;;1.85;1.20;;;14.00;52.50;;;;;;6280548;22;20011;-69
2023/06/18 08:16:39;;;;;;;2.58;1.23;;;14.00;52.60;;;;;;6307216;22;20003;-68
2023/06/18 08:19:07;;;;;;;1.42;1.05;;;14.00;52.70;;;;;;6307218;22;20004;-69
2023/06/18 08:21:34;;;;;;;1.83;1.17;;;14.00;52.80;;;;;;6306130;22;20007;-69
2023/06/18 08:24:02;;;;;;;1.90;1.30;;;14.00;52.70;;;;;;6307294;22;19999;-70
2023/06/18 08:26:30;;;;;;;1.60;1.20;;;14.00;52.80;;;;;;6306167;22;20015;-68
2023/06/18 08:28:58;;;;;;;2.20;1.20;;;13.90;52.70;;;;;;6294000;22;20010;-69
2023/06/18 08:31:26;;;;;;;3.00;1.20;;;13.90;52.50;;;;;;6307490;22;20084;-70
2023/06/18 08:33:53;;;;;;;1.60;1.10;;;13.90;52.60;;;;;;6303184;22;20007;-67
2023/06/18 08:36:23;;;;;;;1.52;1.17;;;13.90;52.50;;;;;;6303537;22;20004;-69
2023/06/18 08:38:51;;;;;;;1.23;1.00;;;13.90;52.50;;;;;;6277631;22;19999;-70
2023/06/18 08:41:18;;;;;;;1.77;0.90;;;13.90;52.50;;;;;;6304313;22;20007;-69
2023/06/18 08:43:46;;;;;;;1.42;0.90;;;13.90;52.70;;;;;;6303767;22;20003;-68
2023/06/18 08:46:14;;;;;;;1.98;1.25;;;13.80;52.60;;;;;;6303282;22;20539;-68
2023/06/18 08:49:10;;;;;;;1.70;1.20;;;13.70;52.80;;;;;;6301340;22;20003;-69
2023/06/18 08:51:39;;;;;;;1.80;1.02;;;13.70;52.90;;;;;;6256542;22;20365;-69
2023/06/18 08:54:18;;;;;;;1.35;1.05;;;13.70;53.20;;;;;;6303831;22;20015;-69
2023/06/18 08:56:54;;;;;;;1.33;1.10;;;13.70;53.40;;;;;;6277097;22;20445;-69
2023/06/18 08:59:22;;;;;;;1.30;1.10;;;13.70;53.40;;;;;;6303116;22;20011;-69
2023/06/18 09:01:50;;;;;;;3.35;1.20;;;13.70;53.50;;;;;;6276410;22;20018;-70
2023/06/18 09:04:19;;;;;;;1.67;1.40;;;13.60;53.50;;;;;;6276178;22;20077;-69
2023/06/18 09:06:46;;;;;;;1.60;1.30;;;13.60;53.60;;;;;;6251913;22;20092;-71
2023/06/18 09:09:14;;;;;;;2.72;1.05;;;13.50;53.70;;;;;;6303729;22;20003;-69
2023/06/18 09:11:41;;;;;;;1.88;1.17;;;13.50;54.00;;;;;;6250732;22;20090;-70
2023/06/18 09:14:09;;;;;;;3.67;1.20;;;13.50;53.90;;;;;;6303601;22;20019;-69
2023/06/18 09:16:37;;;;;;;1.48;1.17;;;13.50;54.10;;;;;;6302716;22;20334;-69
2023/06/18 09:19:04;;;;;;;1.48;1.23;;;13.50;54.20;;;;;;6302736;22;20019;-70
2023/06/18 09:21:42;;;;;;;1.42;1.17;;;13.40;54.30;;;;;;6276290;22;20007;-70
2023/06/18 09:24:25;;;;;;;1.98;1.50;;;13.40;54.30;;;;;;6303464;22;20015;-70
2023/06/18 09:27:01;;;;;;;1.85;1.35;;;13.40;54.30;;;;;;6303662;22;20026;-69
2023/06/18 09:29:33;;;;;;;1.52;1.20;;;13.30;54.40;;;;;;6303217;22;20052;-68
2023/06/18 09:32:20;;;;;;;3.35;1.15;;;13.30;54.30;;;;;;6276125;22;20337;-68
2023/06/18 09:34:47;;;;;;;2.25;1.45;;;13.30;54.10;;;;;;6303765;22;20040;-68
2023/06/18 09:37:16;;;;;;;2.67;1.30;;;13.30;54.30;;;;;;6302808;22;20010;-68
2023/06/18 09:39:44;;;;;;;2.20;1.40;;;13.30;54.00;;;;;;6276691;22;20002;-68
2023/06/18 09:42:13;;;;;;;1.17;0.90;;;13.20;54.00;;;;;;6302854;22;20007;-68
2023/06/18 09:44:44;;;;;;;1.50;1.00;;;13.20;53.90;;;;;;6302847;22;20003;-68
2023/06/18 09:47:12;;;;;;;2.00;1.50;;;13.20;53.90;;;;;;6272852;22;20762;-68
2023/06/18 09:49:45;;;;;;;1.17;1.00;;;13.20;54.00;;;;;;6275651;22;20391;-68
2023/06/18 09:52:12;;;;;;;1.05;0.90;;;13.20;53.70;;;;;;6253014;22;20011;-68
2023/06/18 09:54:44;;;;;;;1.23;1.00;;;13.10;53.70;;;;;;6276452;22;20007;-68
2023/06/18 09:57:13;;;;;;;1.92;1.20;;;13.10;53.80;;;;;;6302425;22;20023;-66
2023/06/18 09:59:41;;;;;;;2.15;1.50;;;13.10;53.90;;;;;;6302560;22;20395;-65
2023/06/18 10:02:13;;;;;;;2.10;1.52;;;13.00;54.10;;;;;;6302986;22;20287;-66
2023/06/18 10:04:41;;;;;;;2.03;1.30;;;13.00;54.50;;;;;;6302007;22;20060;-68
2023/06/18 10:07:15;;;;;;;1.85;1.17;;;12.90;54.50;;;;;;6302516;22;20014;-68
2023/06/18 10:09:45;;;;;;;1.25;0.95;;;12.90;54.40;;;;;;6301286;22;20011;-70
2023/06/18 10:12:15;;;;;;;2.22;1.20;;;12.90;54.50;;;;;;6302952;22;20022;-68
2023/06/18 10:14:42;;;;;;;1.65;1.20;;;12.90;54.50;;;;;;6276812;22;20039;-67
2023/06/18 10:17:10;;;;;;;1.55;1.10;;;12.90;54.30;;;;;;6302508;22;20080;-69
2023/06/18 10:19:56;;;;;;;1.23;0.98;;;12.90;54.20;;;;;;6303485;22;20434;-70
2023/06/18 10:22:23;;;;;;;0.75;0.75;;;12.80;54.30;;;;;;6277954;22;20007;-68
2023/06/18 10:25:05;;;;;;;0.80;0.80;;;12.80;54.20;;;;;;6275818;22;20011;-69
2023/06/18 10:27:33;;;;;;;1.60;1.00;;;12.90;54.00;;;;;;6302289;22;20335;-68
2023/06/18 10:30:00;;;;;;;1.13;0.90;;;12.80;54.10;;;;;;6302222;22;20074;-67
2023/06/18 10:32:30;;;;;;;4.05;0.90;;;12.80;54.20;;;;;;6302945;22;20015;-68
2023/06/18 10:35:00;;;;;;;1.15;0.75;;;12.70;54.10;;;;;;6303346;22;20460;-68
2023/06/18 10:37:30;;;;;;;1.08;0.90;;;12.70;54.10;;;;;;6302995;22;20007;-68
2023/06/18 10:39:58;;;;;;;2.47;1.10;;;12.70;54.00;;;;;;6276294;22;20015;-68
2023/06/18 10:42:25;;;;;;;2.15;1.17;;;12.70;54.00;;;;;;6250059;22;19999;-69
2023/06/18 10:45:02;;;;;;;1.35;0.93;;;12.70;53.90;;;;;;6302281;22;20019;-69
2023/06/18 10:47:30;;;;;;;0.70;0.70;;;12.70;54.10;;;;;;6300140;22;20013;-69
2023/06/18 10:50:07;;;;;;;1.30;1.00;;;12.70;54.00;;;;;;6302654;22;20057;-67
2023/06/18 10:52:37;;;;;;;0.95;0.73;;;12.60;54.10;;;;;;6302585;22;20019;-68
2023/06/18 10:55:10;;;;;;;;;;;12.70;54.20;;;;;;6302333;22;20442;-68
2023/06/18 10:57:40;;;;;;;1.15;0.80;;;12.60;54.10;;;;;;6301825;22;19911;-69
2023/06/18 11:00:37;;;;;;;1.20;0.90;;;12.60;54.20;;;;;;6303271;22;20448;-68
2023/06/18 11:03:17;;;;;;;0.88;0.88;;;12.60;54.20;;;;;;6300711;22;20008;-69
2023/06/18 11:05:53;;;;;;;1.20;0.85;;;12.50;54.10;;;;;;6302088;22;20410;-68
2023/06/18 11:08:31;;;;;;;1.10;1.00;;;12.60;54.30;;;;;;6302098;22;20004;-68
2023/06/18 11:11:15;;;;;;;0.80;0.80;;;12.50;54.10;;;;;;6302686;22;20141;-68
2023/06/18 11:14:05;;;;;;;2.88;0.85;;;12.50;54.30;;;;;;6302992;22;20011;-68
2023/06/18 11:16:32;;;;;;;1.20;1.00;;;12.50;54.30;;;;;;6302827;22;20434;-67
2023/06/18 11:19:03;;;;;;;1.00;0.90;;;12.50;54.30;;;;;;6301739;22;20007;-69
2023/06/18 11:21:31;;;;;;;1.48;1.33;;;12.40;54.40;;;;;;6277989;22;20015;-68
2023/06/18 11:23:58;;;;;;;1.55;1.17;;;12.40;54.60;;;;;;6251972;22;20082;-68
2023/06/18 11:26:27;;;;;;;1.60;1.15;;;12.40;54.70;;;;;;6304975;22;20078;-68
2023/06/18 11:28:54;;;;;;;1.48;1.08;;;12.30;54.80;;;;;;6304400;22;20033;-67
2023/06/18 11:31:22;;;;;;;1.65;1.20;;;12.30;54.90;;;;;;6304095;22;20413;-68
2023/06/18 11:33:49;;;;;;;0.95;0.88;;;12.30;54.80;;;;;;6275868;22;20003;-68
2023/06/18 11:36:18;;;;;;;1.85;0.90;;;12.30;54.80;;;;;;6303934;22;20084;-68
2023/06/18 11:38:47;;;;;;;1.38;0.57;;;12.30;54.80;;;;;;6276447;22;20007;-67
2023/06/18 11:41:14;;;;;;;2.50;1.02;;;12.20;54.60;;;;;;6304337;22;20015;-67
2023/06/18 11:43:52;;;;;;;1.40;0.90;;;12.20;54.80;;;;;;6251658;22;20017;-68
2023/06/18 11:46:34;;;;;;;0.80;0.60;;;12.20;55.00;;;;;;6278624;22;20102;-68
2023/06/18 11:49:01;;;;;;;1.15;0.85;;;12.20;55.30;;;;;;6301400;22;20011;-67
2023/06/18 11:51:29;;;;;;;0.80;0.80;;;12.20;55.40;;;;;;6275996;22;20528;-67
2023/06/18 11:53:57;;;;;;;6.53;0.82;;;12.20;55.60;;;;;;6303724;22;20393;-67
2023/06/18 11:56:25;;;;;;;1.00;0.82;;;12.10;55.70;;;;;;6303485;22;20019;-68
2023/06/18 11:58:54;;;;;;;0.88;0.82;;;12.00;56.00;;;;;;6304403;22;20007;-68
2023/06/18 12:01:25;;;;;;;3.42;1.20;;;12.10;56.20;;;;;;6304211;22;19999;-68
2023/06/18 12:04:00;;;;;;;1.40;1.10;;;12.00;56.50;;;;;;6252162;22;20015;-67
2023/06/18 12:06:28;;;;;;;1.30;1.05;;;12.00;56.70;;;;;;6303472;22;19999;-68
2023/06/18 12:09:02;;;;;;;1.20;1.08;;;11.90;58.00;;;;;;6303487;22;20090;-68
2023/06/18 12:11:36;;;;;;;1.33;1.05;;;11.90;58.70;;;;;;6276408;22;20015;-70
2023/06/18 12:14:06;;;;;;;1.45;0.95;;;11.90;59.00;;;;;;6278740;22;20007;-70
2023/06/18 12:16:33;;;;;;;1.30;0.77;;;11.80;59.20;;;;;;6254343;22;20017;-70
2023/06/18 12:19:03;;;;;;;1.15;0.90;;;11.70;59.40;;;;;;6278834;22;20235;-70
2023/06/18 12:21:31;;;;;;;1.15;0.82;;;11.70;59.70;;;;;;6280193;22;20038;-69
2023/06/18 12:23:58;;;;;;;1.80;1.00;;;11.70;60.00;;;;;;6307241;22;20007;-69
2023/06/18 12:26:27;;;;;;;1.65;1.15;;;11.70;60.70;;;;;;6279244;22;20322;-69
2023/06/18 12:28:57;;;;;;;2.00;1.15;;;11.60;60.70;;;;;;6279368;22;19999;-69
2023/06/18 12:31:25;;;;;;;1.87;1.30;;;11.50;61.20;;;;;;6279836;22;20474;-69
2023/06/18 12:33:52;;;;;;;2.00;1.35;;;11.50;61.50;;;;;;6280527;22;20030;-69
2023/06/18 12:36:27;;;;;;;1.45;1.35;;;11.50;61.30;;;;;;6307303;22;20065;-69
2023/06/18 12:38:54;;;;;;;4.10;1.48;;;11.50;61.30;;;;;;6280707;22;20502;-70
2023/06/18 12:41:23;;;;;;;2.38;1.50;;;11.50;61.30;;;;;;6306996;22;20007;-69
2023/06/18 12:43:50;;;;;;;2.83;1.85;;;11.50;61.70;;;;;;6307148;22;20536;-70
2023/06/18 12:46:25;;;;;;;3.13;2.00;;;11.50;61.70;;;;;;6279355;22;20003;-70
2023/06/18 12:48:53;;;;;;;3.08;2.15;;;11.40;61.90;;;;;;6307035;22;20007;-70
2023/06/18 12:51:20;;;;;;;3.78;2.03;;;11.40;62.20;;;;;;6307089;22;20130;-70
2023/06/18 12:53:47;;;;;;;2.78;1.70;;;11.40;62.70;;;;;;6279743;22;20088;-69
2023/06/18 12:56:22;;;;;;;4.00;2.03;;;11.40;63.10;;;;;;6306421;22;20015;-69
2023/06/18 12:58:51;;;;;;;5.45;2.17;;;11.30;63.30;;;;;;6307025;22;20082;-70
2023/06/18 13:01:20;;;;;;;4.68;1.77;;;11.30;63.40;;;;;;6306453;22;19995;-69
2023/06/18 13:03:48;;;;;;;3.03;1.70;;;11.30;63.50;;;;;;6307039;22;20015;-70
2023/06/18 13:06:17;;;;;;;2.50;1.52;;;11.30;63.20;;;;;;6306215;22;19999;-69
2023/06/18 13:08:47;;;;;;;1.92;1.48;;;11.30;63.20;;;;;;6280082;22;20326;-70
2023/06/18 13:11:14;;;;;;;2.47;1.40;;;11.30;63.30;;;;;;6306088;22;20014;-69
2023/06/18 13:13:42;;;;;;;3.38;1.42;;;11.30;63.30;;;;;;6307162;22;20006;-70
2023/06/18 13:16:10;;;;;;;3.28;1.70;;;11.30;63.30;;;;;;6306461;22;20339;-69
2023/06/18 13:18:37;;;;;;;3.83;1.70;;;11.30;63.30;;;;;;6306877;22;19999;-70
2023/06/18 13:21:04;;;;;;;2.45;1.67;;;11.30;63.40;;;;;;6305973;22;20011;-69
2023/06/18 13:23:32;;;;;;;2.95;1.75;;;11.30;63.50;;;;;;6305731;22;20430;-69
2023/06/18 13:25:59;;;;;;;2.17;1.50;;;11.20;63.70;;;;;;6306278;22;20138;-70
2023/06/18 13:28:27;;;;;;;3.03;1.67;;;11.20;63.40;;;;;;6306692;22;20014;-70
2023/06/18 13:30:54;;;;;;;1.70;1.20;;;11.20;63.30;;;;;;6306908;22;20022;-70
2023/06/18 13:33:22;;;;;;;2.03;1.52;;;11.20;63.10;;;;;;6306987;22;20337;-70
2023/06/18 13:35:49;;;;;;;2.50;1.30;;;11.20;63.10;;;;;;6306144;22;20003;-69
2023/06/18 13:38:17;;;;;;;2.97;1.40;;;11.20;63.00;;;;;;6306932;22;20009;-70
2023/06/18 13:40:44;;;;;;;3.45;1.50;;;11.20;63.10;;;;;;6306830;22;20003;-70
2023/06/18 13:43:12;;;;;;;3.28;1.40;;;11.20;63.30;;;;;;6305788;22;20004;-69
2023/06/18 13:45:40;;;;;;;1.88;1.30;;;11.10;63.10;;;;;;6306624;22;20075;-69
2023/06/18 13:48:08;;;;;;;1.80;1.30;;;11.10;62.70;;;;;;6306544;22;20011;-69
2023/06/18 13:50:36;;;;;;;2.72;1.60;;;11.10;62.50;;;;;;6306367;22;20003;-69
2023/06/18 13:53:03;;;;;;;3.10;1.50;;;11.10;61.90;;;;;;6279545;22;20007;-69
2023/06/18 13:55:31;;;;;;;2.38;1.20;;;11.10;61.60;;;;;;6305866;22;20015;-69
2023/06/18 13:57:59;;;;;;;2.90;1.45;;;11.10;61.70;;;;;;6306531;22;20366;-69
2023/06/18 14:00:27;;;;;;;2.28;1.30;;;11.10;61.40;;;;;;6305915;22;20006;-69
2023/06/18 14:02:55;;;;;;;2.58;1.20;;;11.10;61.60;;;;;;6306140;22;20315;-69
2023/06/18 14:05:22;;;;;;;1.60;1.20;;;11.10;60.90;;;;;;6306555;22;20330;-69
2023/06/18 14:07:50;;;;;;;2.15;1.10;;;11.10;60.70;;;;;;6306263;22;19999;-69
2023/06/18 14:10:17;;;;;;;1.65;1.20;;;11.00;60.70;;;;;;6305782;22;20010;-69
2023/06/18 14:12:45;;;;;;;1.67;1.15;;;11.00;60.70;;;;;;6278661;22;20042;-69
2023/06/18 14:15:13;;;;;;;1.40;1.02;;;11.00;60.70;;;;;;6305773;22;19999;-69
2023/06/18 14:17:45;;;;;;;2.20;1.15;;;11.00;60.80;;;;;;6306511;22;20010;-69
2023/06/18 14:20:16;;;;;;;2.63;1.10;;;10.90;60.90;;;;;;6306401;22;20070;-69
2023/06/18 14:22:44;;;;;;;3.25;1.30;;;10.90;60.90;;;;;;6305985;22;20083;-69
2023/06/18 14:25:11;;;;;;;1.80;1.30;;;10.90;60.90;;;;;;6306718;22;20060;-69
2023/06/18 14:27:38;;;;;;;3.88;1.40;;;10.90;60.90;;;;;;6305883;22;20074;-69
2023/06/18 14:30:07;;;;;;;2.95;1.20;;;10.80;61.00;;;;;;6306353;22;20077;-69
2023/06/18 14:32:34;;;;;;;1.55;1.30;;;10.90;61.00;;;;;;6305261;22;20452;-69
2023/06/18 14:35:02;;;;;;;4.20;1.38;;;10.90;61.10;;;;;;6305966;22;20070;-69
2023/06/18 14:37:29;;;;;;;2.63;1.60;;;10.90;61.00;;;;;;6306217;22;20330;-69
2023/06/18 14:39:56;;;;;;;2.22;1.38;;;10.80;61.00;;;;;;6306512;22;19999;-69
2023/06/18 14:42:24;;;;;;;2.30;1.42;;;10.80;61.00;;;;;;6305667;22;20011;-69
2023/06/18 14:44:51;;;;;;;4.80;1.70;;;10.80;61.20;;;;;;6305640;22;20039;-69
2023/06/18 14:47:19;;;;;;;2.33;1.50;;;10.80;61.10;;;;;;6306425;22;20438;-69
2023/06/18 14:49:53;;;;;;;3.88;1.50;;;10.70;61.30;;;;;;6306563;22;20426;-69
2023/06/18 14:52:21;;;;;;;2.75;1.77;;;10.70;61.80;;;;;;6280281;22;20030;-70
2023/06/18 14:54:49;;;;;;;2.08;1.40;;;10.60;62.50;;;;;;6279833;22;20502;-70
2023/06/18 14:57:17;;;;;;;3.95;1.58;;;10.50;63.00;;;;;;6307869;22;20023;-70
2023/06/18 14:59:49;;;;;;;2.67;1.60;;;10.50;63.20;;;;;;6308508;22;20007;-70
2023/06/18 15:02:20;;;;;;;2.58;1.80;;;10.50;64.20;;;;;;6282693;22;20418;-69
2023/06/18 15:04:49;;;;;;;3.17;1.40;;;10.40;63.90;;;;;;6308730;22;20000;-69
2023/06/18 15:07:16;;;;;;;2.45;1.45;;;10.40;64.60;;;;;;6308170;22;20003;-69
2023/06/18 15:09:44;;;;;;;3.20;1.60;;;10.40;64.30;;;;;;6307442;22;20011;-69
2023/06/18 15:12:12;;;;;;;2.13;1.60;;;10.40;64.20;;;;;;6307805;22;20098;-69
2023/06/18 15:14:40;;;;;;;2.75;1.60;;;10.30;64.90;;;;;;6308013;22;20426;-70
2023/06/18 15:17:07;;;;;;;4.32;1.70;;;10.30;65.30;;;;;;6307681;22;20007;-69
2023/06/18 15:19:35;;;;;;;4.03;2.35;;;10.20;65.50;;;;;;6306740;22;20397;-71
2023/06/18 15:22:02;;;;;;;5.32;1.92;;;10.20;65.50;;;;;;6307122;22;20025;-69
2023/06/18 15:24:30;;;;;;;5.47;2.35;;;10.20;65.60;;;;;;6307748;22;20009;-69
2023/06/18 15:26:57;;;;;;;5.57;2.30;;;10.20;65.50;;;;;;6295278;22;20342;-69
2023/06/18 15:29:24;;;;;;;4.97;2.20;;;10.20;65.50;;;;;;6307622;22;20006;-69
2023/06/18 15:31:52;;;;;;;9.70;2.33;;;10.20;65.40;;;;;;6307139;22;20022;-69
2023/06/18 15:34:20;;;;;;;7.60;2.50;;;10.20;65.30;;;;;;6308158;22;20003;-70
2023/06/18 15:36:48;;;;;;;10.88;2.50;;;10.20;65.20;;;;;;6308159;22;19999;-69
2023/06/18 15:39:19;;;;;;;5.07;2.10;;;10.20;65.80;;;;;;6307194;22;20015;-69